Time;durP1;ratioP1;P1;durP2;ratioP2;P2;SDS_P1;SDS_P2;PMS_P1;PMS_P2;Temp;Humidity;BMP_temperature;BMP_pressure;BME280_temperature;BME280_humidity;BME280_pressure;Samples;Min_cycle;Max_cycle;Signal;HPM_P1;HPM_P2
2021/10/16 00:01:40;;;;;;;32.80;7.68;;;30.20;89.10;;;;;;5072773;28;20024;-54
2021/10/16 00:04:07;;;;;;;22.25;6.88;;;30.10;89.50;;;;;;5072365;28;20090;-53
2021/10/16 00:06:33;;;;;;;19.08;6.60;;;30.10;89.90;;;;;;5074109;28;20073;-47
2021/10/16 00:09:00;;;;;;;14.60;5.93;;;30.10;89.80;;;;;;5073451;28;20055;-45
2021/10/16 00:11:27;;;;;;;17.33;6.40;;;30.00;89.90;;;;;;5070238;28;20208;-49
2021/10/16 00:13:53;;;;;;;12.48;5.93;;;30.00;90.00;;;;;;5073526;28;20089;-48
2021/10/16 00:16:20;;;;;;;14.70;5.78;;;30.10;89.80;;;;;;5072148;28;20005;-49
2021/10/16 00:18:46;;;;;;;15.35;5.90;;;30.20;89.60;;;;;;5073970;28;20027;-49
2021/10/16 00:21:13;;;;;;;16.83;6.75;;;30.20;89.30;;;;;;5071814;28;20048;-45
2021/10/16 00:23:40;;;;;;;14.23;7.10;;;30.30;89.20;;;;;;5070518;28;20025;-50
2021/10/16 00:26:06;;;;;;;15.23;6.72;;;30.30;89.00;;;;;;5073388;28;20305;-47
2021/10/16 00:28:33;;;;;;;13.57;6.93;;;30.30;89.00;;;;;;5070949;28;20068;-50
2021/10/16 00:31:00;;;;;;;15.75;6.53;;;30.40;89.00;;;;;;5077880;28;20024;-47
2021/10/16 00:33:26;;;;;;;18.33;6.93;;;30.40;88.80;;;;;;5083386;28;20020;-54
2021/10/16 00:35:53;;;;;;;15.75;6.35;;;30.40;88.70;;;;;;5083643;28;20020;-50
2021/10/16 00:38:20;;;;;;;17.13;7.28;;;30.40;88.60;;;;;;5083634;28;20033;-45
2021/10/16 00:40:47;;;;;;;12.98;6.65;;;30.40;88.70;;;;;;5085693;28;20024;-50
2021/10/16 00:43:14;;;;;;;13.27;5.00;;;30.40;88.70;;;;;;5075951;28;20021;-50
2021/10/16 00:45:40;;;;;;;12.30;5.40;;;30.40;88.30;;;;;;5076107;28;20430;-50
2021/10/16 00:48:07;;;;;;;12.85;4.70;;;30.40;88.20;;;;;;5078213;28;20045;-48
2021/10/16 00:50:34;;;;;;;15.10;5.00;;;30.40;88.10;;;;;;5076265;28;20080;-46
2021/10/16 00:53:02;;;;;;;7.65;5.20;;;30.40;88.20;;;;;;5075216;28;20032;-49
2021/10/16 00:55:29;;;;;;;14.48;5.97;;;30.40;88.20;;;;;;5076118;28;20012;-49
2021/10/16 00:57:59;;;;;;;17.55;5.32;;;30.40;88.30;;;;;;5081800;28;20066;-48
2021/10/16 01:00:26;;;;;;;12.07;5.65;;;30.40;88.00;;;;;;5087323;28;20021;-53
2021/10/16 01:02:53;;;;;;;16.83;6.00;;;30.30;88.60;;;;;;5085705;28;20024;-50
2021/10/16 01:05:20;;;;;;;18.15;6.88;;;30.40;88.30;;;;;;5086280;28;20087;-51
2021/10/16 01:07:47;;;;;;;15.82;8.68;;;30.30;88.40;;;;;;5087297;28;20020;-50
2021/10/16 01:10:14;;;;;;;17.30;9.15;;;30.30;88.40;;;;;;5087166;28;20016;-52
2021/10/16 01:12:42;;;;;;;13.02;8.70;;;30.30;88.50;;;;;;5087052;28;20024;-46
2021/10/16 01:15:16;;;;;;;14.70;7.97;;;30.30;88.40;;;;;;5087050;28;20008;-50
2021/10/16 01:17:47;;;;;;;15.00;8.40;;;30.30;88.40;;;;;;5087224;28;20009;-46
2021/10/16 01:20:23;;;;;;;18.88;7.18;;;30.30;88.30;;;;;;5086344;28;20013;-49
2021/10/16 01:22:54;;;;;;;14.45;7.15;;;30.20;88.10;;;;;;5086732;28;20044;-53
2021/10/16 01:25:24;;;;;;;12.30;6.40;;;30.30;88.20;;;;;;5086855;28;20037;-48
2021/10/16 01:27:51;;;;;;;10.32;5.68;;;30.20;88.20;;;;;;5086662;28;20051;-50
2021/10/16 01:30:20;;;;;;;9.73;4.68;;;30.20;88.20;;;;;;5086100;28;20096;-47
2021/10/16 01:32:47;;;;;;;19.17;5.32;;;30.20;88.20;;;;;;5086877;28;20036;-53
2021/10/16 01:35:14;;;;;;;18.00;4.45;;;30.20;88.40;;;;;;5086862;28;20017;-48
2021/10/16 01:37:46;;;;;;;22.67;4.10;;;30.20;88.30;;;;;;5086512;28;20201;-49
2021/10/16 01:40:14;;;;;;;13.25;3.58;;;30.10;88.50;;;;;;5086765;28;20080;-46
2021/10/16 01:42:44;;;;;;;8.30;3.42;;;30.10;88.70;;;;;;5085874;28;20025;-49
2021/10/16 01:45:16;;;;;;;11.82;3.40;;;30.10;88.70;;;;;;5086769;28;20021;-50
2021/10/16 01:47:54;;;;;;;9.73;3.75;;;30.10;88.80;;;;;;5086635;28;20075;-57
2021/10/16 01:50:22;;;;;;;10.05;3.25;;;30.10;88.80;;;;;;5086261;28;20312;-49
2021/10/16 01:52:49;;;;;;;8.38;3.30;;;30.00;88.70;;;;;;5086886;28;20036;-50
2021/10/16 01:55:16;;;;;;;6.50;3.22;;;30.00;88.60;;;;;;5085802;28;20017;-47
2021/10/16 01:57:46;;;;;;;6.75;3.60;;;30.00;88.60;;;;;;5085013;28;20021;-48
2021/10/16 02:00:13;;;;;;;8.18;2.97;;;30.00;88.50;;;;;;5086499;28;20305;-47
2021/10/16 02:02:40;;;;;;;4.90;3.03;;;30.00;88.40;;;;;;5085686;28;20227;-45
2021/10/16 02:05:07;;;;;;;10.65;3.10;;;30.00;88.30;;;;;;5090254;28;20017;-47
2021/10/16 02:07:34;;;;;;;10.27;3.13;;;30.00;88.30;;;;;;5072253;28;20017;-50
2021/10/16 02:10:01;;;;;;;5.80;3.28;;;30.00;88.30;;;;;;5086220;28;20020;-47
2021/10/16 02:12:28;;;;;;;8.73;3.03;;;30.00;88.30;;;;;;5085895;28;20019;-45
2021/10/16 02:14:54;;;;;;;6.63;3.05;;;30.00;88.30;;;;;;5086155;28;20043;-53
2021/10/16 02:17:21;;;;;;;7.10;3.15;;;30.00;88.30;;;;;;5086312;28;20008;-50
2021/10/16 02:19:48;;;;;;;6.90;3.08;;;30.00;88.20;;;;;;5066286;28;20114;-56
2021/10/16 02:22:15;;;;;;;10.95;3.22;;;30.00;88.10;;;;;;5064909;28;20025;-46
2021/10/16 02:24:42;;;;;;;7.88;2.88;;;30.00;88.00;;;;;;5085323;28;20309;-48
2021/10/16 02:27:09;;;;;;;7.43;3.10;;;30.00;87.90;;;;;;5085859;28;20020;-49
2021/10/16 02:29:35;;;;;;;5.60;2.72;;;30.00;87.90;;;;;;5085707;28;20100;-51
2021/10/16 02:32:02;;;;;;;7.53;2.95;;;30.00;87.90;;;;;;5084721;28;20323;-52
2021/10/16 02:34:38;;;;;;;8.18;2.70;;;30.00;87.90;;;;;;5067546;28;20017;-54
2021/10/16 02:37:07;;;;;;;7.47;2.97;;;30.00;87.90;;;;;;5065870;28;20024;-47
2021/10/16 02:39:34;;;;;;;7.70;2.70;;;30.00;87.80;;;;;;5083564;28;20017;-46
2021/10/16 02:42:01;;;;;;;4.25;2.65;;;30.00;87.70;;;;;;5084503;28;20059;-48
2021/10/16 02:44:28;;;;;;;5.68;2.40;;;30.00;87.70;;;;;;5086075;28;20032;-49
2021/10/16 02:46:55;;;;;;;4.72;2.88;;;30.00;87.70;;;;;;5085862;28;20040;-51
2021/10/16 02:49:21;;;;;;;4.53;2.83;;;30.00;87.80;;;;;;5069727;28;20043;-45
2021/10/16 02:51:48;;;;;;;4.10;2.60;;;29.90;88.20;;;;;;5064565;28;20021;-48
2021/10/16 02:54:18;;;;;;;8.55;2.50;;;29.90;87.60;;;;;;5064191;28;20017;-49
2021/10/16 02:56:45;;;;;;;11.88;2.85;;;29.90;87.60;;;;;;5065442;28;20020;-52
2021/10/16 02:59:12;;;;;;;4.40;2.55;;;29.90;87.60;;;;;;5079893;28;20166;-45
2021/10/16 03:01:39;;;;;;;4.75;2.58;;;29.90;87.50;;;;;;5084222;28;20103;-47
2021/10/16 03:04:06;;;;;;;4.00;2.35;;;29.90;87.50;;;;;;5083296;28;20024;-47
2021/10/16 03:06:33;;;;;;;3.42;2.40;;;29.90;87.50;;;;;;5085500;28;20025;-46
2021/10/16 03:09:00;;;;;;;7.78;3.15;;;29.90;87.40;;;;;;5071902;28;20077;-48
2021/10/16 03:11:27;;;;;;;10.25;3.88;;;29.90;87.40;;;;;;5065203;28;20055;-48
2021/10/16 03:13:54;;;;;;;8.98;4.78;;;29.80;87.40;;;;;;5077558;28;20020;-45
2021/10/16 03:16:20;;;;;;;11.57;7.88;;;29.80;87.60;;;;;;5084976;28;20044;-46
2021/10/16 03:18:48;;;;;;;10.57;5.68;;;29.80;87.50;;;;;;5084832;28;20520;-51
2021/10/16 03:21:15;;;;;;;15.88;5.00;;;29.80;87.30;;;;;;5083791;28;20328;-47
2021/10/16 03:23:41;;;;;;;9.65;4.50;;;29.80;87.30;;;;;;5073349;28;20021;-53
2021/10/16 03:26:08;;;;;;;10.07;5.00;;;29.80;87.60;;;;;;5065128;28;20092;-49
2021/10/16 03:28:35;;;;;;;8.38;4.82;;;29.80;87.80;;;;;;5072937;28;20082;-48
2021/10/16 03:31:01;;;;;;;9.55;4.75;;;29.80;87.90;;;;;;5085013;28;20032;-47
2021/10/16 03:33:28;;;;;;;10.30;4.95;;;29.80;88.20;;;;;;5084880;28;20085;-54
2021/10/16 03:35:55;;;;;;;8.88;4.78;;;29.70;88.70;;;;;;5085188;28;20268;-47
2021/10/16 03:38:22;;;;;;;10.75;4.88;;;29.70;88.40;;;;;;5076834;28;20021;-49
2021/10/16 03:40:48;;;;;;;10.00;5.88;;;29.70;88.60;;;;;;5063404;28;20120;-51
2021/10/16 03:43:15;;;;;;;25.73;6.50;;;29.70;88.90;;;;;;5070790;28;20024;-50
2021/10/16 03:45:41;;;;;;;51.05;7.95;;;29.70;88.70;;;;;;5084532;28;20058;-47
2021/10/16 03:48:08;;;;;;;113.78;11.30;;;29.60;88.90;;;;;;5084249;28;20020;-51
2021/10/16 03:50:35;;;;;;;117.13;12.80;;;29.60;89.10;;;;;;5084367;28;20028;-54
2021/10/16 03:53:02;;;;;;;103.53;13.10;;;29.60;89.40;;;;;;5079330;28;20083;-49
2021/10/16 03:55:28;;;;;;;64.00;9.02;;;29.60;89.50;;;;;;5064196;28;20084;-46
2021/10/16 03:57:58;;;;;;;43.83;7.55;;;29.60;89.60;;;;;;5067936;28;20044;-49
2021/10/16 04:00:24;;;;;;;39.05;6.72;;;29.60;89.70;;;;;;5084224;28;20028;-50
2021/10/16 04:02:53;;;;;;;41.35;6.63;;;29.50;90.10;;;;;;5084124;28;20044;-48
2021/10/16 04:05:20;;;;;;;39.05;6.38;;;29.50;89.90;;;;;;5084427;28;20037;-50
2021/10/16 04:07:46;;;;;;;70.88;8.77;;;29.50;90.00;;;;;;5081256;28;20040;-46
2021/10/16 04:10:13;;;;;;;77.60;9.60;;;29.50;90.10;;;;;;5064174;28;20020;-48
2021/10/16 04:12:39;;;;;;;99.40;11.70;;;29.50;90.10;;;;;;5065781;28;20323;-49
2021/10/16 04:15:07;;;;;;;58.10;8.05;;;29.50;90.20;;;;;;5083460;28;20024;-50
2021/10/16 04:17:33;;;;;;;42.88;6.90;;;29.50;90.20;;;;;;5082048;28;20218;-49
2021/10/16 04:20:00;;;;;;;42.00;7.38;;;29.50;90.30;;;;;;5082127;28;20174;-56
2021/10/16 04:22:27;;;;;;;52.25;7.63;;;29.40;90.30;;;;;;5081934;28;20016;-48
2021/10/16 04:24:53;;;;;;;49.80;8.20;;;29.40;90.30;;;;;;5062102;28;20334;-49
2021/10/16 04:27:23;;;;;;;46.70;6.93;;;29.40;90.40;;;;;;5062413;28;20024;-51
2021/10/16 04:29:51;;;;;;;24.58;5.57;;;29.50;90.40;;;;;;5081948;28;20044;-53
2021/10/16 04:32:18;;;;;;;25.83;6.22;;;29.50;90.50;;;;;;5083991;28;20070;-54
2021/10/16 04:34:44;;;;;;;13.52;5.20;;;29.50;90.50;;;;;;5084285;28;20036;-51
2021/10/16 04:37:11;;;;;;;18.20;4.88;;;29.50;90.40;;;;;;5083916;28;20067;-52
2021/10/16 04:39:38;;;;;;;21.83;4.68;;;29.50;90.50;;;;;;5065201;28;20055;-48
2021/10/16 04:42:06;;;;;;;21.02;4.70;;;29.40;90.50;;;;;;5063707;28;20028;-49
2021/10/16 04:44:35;;;;;;;13.98;4.82;;;29.40;90.70;;;;;;5064246;28;20029;-48
2021/10/16 04:47:02;;;;;;;15.02;5.45;;;29.30;90.90;;;;;;5063381;28;20031;-45
2021/10/16 04:49:29;;;;;;;19.73;5.47;;;29.30;91.10;;;;;;5064347;28;20033;-48
2021/10/16 04:51:56;;;;;;;15.10;4.40;;;29.20;90.90;;;;;;5063866;28;20048;-49
2021/10/16 04:54:22;;;;;;;14.23;3.38;;;29.20;90.70;;;;;;5064234;28;20080;-50
2021/10/16 04:56:49;;;;;;;7.30;2.70;;;29.20;90.30;;;;;;5064425;28;20052;-48
2021/10/16 04:59:16;;;;;;;6.47;2.70;;;29.10;89.50;;;;;;5064436;28;20036;-47
2021/10/16 05:01:42;;;;;;;9.40;2.17;;;29.10;89.30;;;;;;5063797;28;20044;-47
2021/10/16 05:04:09;;;;;;;3.90;1.60;;;29.00;89.00;;;;;;5064297;28;20373;-50
2021/10/16 05:06:36;;;;;;;5.72;1.80;;;29.00;88.70;;;;;;5062713;28;20028;-46
2021/10/16 05:09:02;;;;;;;4.50;1.58;;;28.90;88.80;;;;;;5064270;28;20056;-50
2021/10/16 05:11:29;;;;;;;3.22;1.42;;;28.90;88.60;;;;;;5063945;28;20021;-50
2021/10/16 05:13:55;;;;;;;3.08;1.20;;;28.90;88.20;;;;;;5064363;28;20095;-47
2021/10/16 05:16:22;;;;;;;5.78;1.83;;;28.90;88.20;;;;;;5063721;28;20021;-45
2021/10/16 05:18:49;;;;;;;5.43;1.30;;;28.80;87.00;;;;;;5064104;28;20059;-46
2021/10/16 05:21:15;;;;;;;3.58;1.35;;;28.70;86.50;;;;;;5064062;28;20032;-47
2021/10/16 05:23:42;;;;;;;3.08;0.98;;;28.70;87.00;;;;;;5064368;28;20252;-49
2021/10/16 05:26:09;;;;;;;2.38;0.88;;;28.70;86.80;;;;;;5064535;28;20257;-48
2021/10/16 05:28:35;;;;;;;2.85;1.15;;;28.70;87.10;;;;;;5067523;28;20032;-50
2021/10/16 05:31:02;;;;;;;2.60;1.15;;;28.60;87.30;;;;;;5067641;28;20035;-51
2021/10/16 05:33:29;;;;;;;4.40;1.42;;;28.60;88.00;;;;;;5067806;28;20025;-51
2021/10/16 05:35:55;;;;;;;3.65;0.90;;;28.50;88.30;;;;;;5067515;28;20047;-46
2021/10/16 05:38:22;;;;;;;3.70;0.88;;;28.50;88.60;;;;;;5066948;28;20217;-47
2021/10/16 05:40:49;;;;;;;4.75;0.90;;;28.50;88.70;;;;;;5067161;28;20024;-47
2021/10/16 05:43:16;;;;;;;2.03;0.80;;;28.50;88.80;;;;;;5067339;28;20025;-46
2021/10/16 05:45:42;;;;;;;1.58;0.93;;;28.50;88.90;;;;;;5067113;28;20209;-46
2021/10/16 05:48:09;;;;;;;1.95;0.70;;;28.50;89.00;;;;;;5067153;28;20358;-46
2021/10/16 05:50:36;;;;;;;5.05;0.90;;;28.40;89.00;;;;;;5067390;28;20046;-47
2021/10/16 05:53:03;;;;;;;3.00;0.80;;;28.50;89.10;;;;;;5065963;28;20052;-51
2021/10/16 05:55:29;;;;;;;3.85;1.00;;;28.50;89.20;;;;;;5066888;28;20047;-48
2021/10/16 05:57:56;;;;;;;2.88;0.60;;;28.50;89.00;;;;;;5066747;28;20025;-46
2021/10/16 06:00:22;;;;;;;2.85;0.80;;;28.40;89.20;;;;;;5066585;28;20308;-51
2021/10/16 06:02:49;;;;;;;1.15;0.60;;;28.40;89.00;;;;;;5066533;28;20029;-51
2021/10/16 06:05:16;;;;;;;3.80;0.88;;;28.40;89.00;;;;;;5066635;28;20080;-47
2021/10/16 06:07:42;;;;;;;3.08;1.00;;;28.40;88.90;;;;;;5066784;28;20084;-48
2021/10/16 06:10:09;;;;;;;1.52;0.90;;;28.30;88.80;;;;;;5066256;28;20044;-57
2021/10/16 06:12:36;;;;;;;3.47;0.90;;;28.30;88.30;;;;;;5066854;28;20025;-51
2021/10/16 06:15:03;;;;;;;2.30;1.10;;;28.30;88.30;;;;;;5066764;28;20016;-49
2021/10/16 06:17:29;;;;;;;4.72;1.48;;;28.30;88.60;;;;;;5066087;28;20017;-49
2021/10/16 06:19:56;;;;;;;3.25;1.20;;;28.30;88.60;;;;;;5066712;28;20029;-46
2021/10/16 06:22:23;;;;;;;3.45;1.15;;;28.30;88.60;;;;;;5066096;28;20052;-50
2021/10/16 06:24:51;;;;;;;3.90;1.30;;;28.30;88.60;;;;;;5066441;28;20037;-49
2021/10/16 06:27:18;;;;;;;2.13;1.20;;;28.30;88.90;;;;;;5066433;28;20021;-52
2021/10/16 06:29:45;;;;;;;4.85;1.20;;;28.30;89.30;;;;;;5066450;28;20037;-50
2021/10/16 06:32:11;;;;;;;4.32;1.30;;;28.30;89.40;;;;;;5066549;28;20024;-51
2021/10/16 06:34:38;;;;;;;2.90;1.38;;;28.30;89.60;;;;;;5066653;28;20029;-51
2021/10/16 06:37:05;;;;;;;4.20;1.65;;;28.20;89.50;;;;;;5066453;28;20013;-47
2021/10/16 06:39:31;;;;;;;5.97;1.45;;;28.20;89.70;;;;;;5066247;28;20029;-54
2021/10/16 06:41:58;;;;;;;3.60;1.67;;;28.20;89.70;;;;;;5065731;28;20289;-53
2021/10/16 06:44:24;;;;;;;2.97;1.45;;;28.20;90.00;;;;;;5066526;28;20025;-45
2021/10/16 06:46:51;;;;;;;2.10;1.42;;;28.20;89.90;;;;;;5066199;28;20021;-48
2021/10/16 06:49:17;;;;;;;2.97;1.40;;;28.20;90.00;;;;;;5065843;28;20033;-53
2021/10/16 06:51:44;;;;;;;2.80;1.65;;;28.20;90.00;;;;;;5065720;28;20079;-50
2021/10/16 06:54:12;;;;;;;2.63;1.55;;;28.10;89.90;;;;;;5066247;28;20309;-50
2021/10/16 06:56:39;;;;;;;2.22;1.50;;;28.20;89.80;;;;;;5065772;28;20062;-52
2021/10/16 06:59:06;;;;;;;2.85;1.70;;;28.10;89.70;;;;;;5065586;28;20028;-53
2021/10/16 07:01:32;;;;;;;2.15;1.52;;;28.10;89.70;;;;;;5065794;28;20170;-52
2021/10/16 07:03:59;;;;;;;5.63;1.70;;;28.10;89.50;;;;;;5065755;28;20067;-51
2021/10/16 07:06:26;;;;;;;3.63;1.63;;;28.10;89.20;;;;;;5065408;28;20102;-51
2021/10/16 07:08:52;;;;;;;5.85;1.50;;;28.10;89.30;;;;;;5065407;28;20054;-52
2021/10/16 07:11:19;;;;;;;4.70;1.58;;;28.00;89.20;;;;;;5065449;28;20209;-52
2021/10/16 07:13:45;;;;;;;5.15;1.70;;;28.00;89.20;;;;;;5065426;28;20353;-55
2021/10/16 07:16:12;;;;;;;4.82;1.88;;;28.00;89.10;;;;;;5065267;28;20028;-51
2021/10/16 07:18:39;;;;;;;5.15;2.40;;;28.00;88.90;;;;;;5065089;28;20035;-48
2021/10/16 07:21:06;;;;;;;3.33;2.00;;;28.00;89.00;;;;;;5065371;28;20063;-46
2021/10/16 07:23:33;;;;;;;3.22;1.55;;;28.00;89.10;;;;;;5065224;28;20074;-48
2021/10/16 07:26:00;;;;;;;5.15;1.80;;;28.00;89.00;;;;;;5065057;28;20027;-47
2021/10/16 07:28:27;;;;;;;3.95;1.52;;;28.00;89.10;;;;;;5065252;28;20029;-46
2021/10/16 07:30:54;;;;;;;5.15;1.63;;;28.00;89.30;;;;;;5065078;28;20059;-54
2021/10/16 07:33:20;;;;;;;3.65;1.63;;;27.90;89.30;;;;;;5065246;28;20087;-51
2021/10/16 07:35:47;;;;;;;3.72;1.70;;;27.90;89.50;;;;;;5065129;28;20024;-46
2021/10/16 07:38:14;;;;;;;5.40;1.50;;;27.90;89.70;;;;;;5065259;28;20139;-46
2021/10/16 07:40:41;;;;;;;2.55;1.40;;;27.90;89.80;;;;;;5064781;28;20040;-55
2021/10/16 07:43:09;;;;;;;4.22;1.55;;;27.90;89.90;;;;;;5065126;28;20025;-49
2021/10/16 07:45:36;;;;;;;8.63;1.85;;;27.90;89.90;;;;;;5064935;28;20040;-48
2021/10/16 07:48:03;;;;;;;4.05;1.67;;;27.90;90.00;;;;;;5065018;28;20025;-47
2021/10/16 07:50:30;;;;;;;5.40;1.75;;;27.80;90.10;;;;;;5064361;28;20301;-45
2021/10/16 07:52:56;;;;;;;5.03;1.90;;;27.80;90.20;;;;;;5064331;28;20305;-55
2021/10/16 07:55:23;;;;;;;3.67;1.63;;;27.80;90.20;;;;;;5064274;28;20016;-47
2021/10/16 07:57:49;;;;;;;3.67;1.58;;;27.80;90.30;;;;;;5064193;28;20037;-51
2021/10/16 08:00:16;;;;;;;5.82;1.60;;;27.80;90.30;;;;;;5064100;28;20213;-56
2021/10/16 08:02:43;;;;;;;5.60;1.60;;;27.80;90.30;;;;;;5064077;28;20028;-50
2021/10/16 08:05:14;;;;;;;2.70;1.38;;;27.70;90.30;;;;;;5064478;28;20235;-54
2021/10/16 08:07:44;;;;;;;2.80;1.52;;;27.70;90.30;;;;;;5064647;28;20297;-53
2021/10/16 08:10:12;;;;;;;4.95;1.60;;;27.70;90.30;;;;;;5064063;28;20025;-52
2021/10/16 08:12:40;;;;;;;5.35;1.85;;;27.70;90.30;;;;;;5064628;28;20269;-51
2021/10/16 08:15:09;;;;;;;5.13;2.05;;;27.70;90.20;;;;;;5064402;28;20044;-50
2021/10/16 08:17:35;;;;;;;5.63;2.15;;;27.70;90.30;;;;;;5064289;28;20021;-56
2021/10/16 08:20:03;;;;;;;6.68;1.77;;;27.70;90.30;;;;;;5063982;28;20085;-57
2021/10/16 08:22:29;;;;;;;4.93;1.92;;;27.70;90.40;;;;;;5064229;28;20028;-56
2021/10/16 08:24:56;;;;;;;3.88;1.90;;;27.70;90.40;;;;;;5064330;28;20067;-50
2021/10/16 08:27:23;;;;;;;4.63;1.80;;;27.70;90.40;;;;;;5064224;28;20166;-52
2021/10/16 08:29:50;;;;;;;5.03;2.33;;;27.70;90.40;;;;;;5064205;28;20163;-51
2021/10/16 08:32:16;;;;;;;4.53;2.20;;;27.70;90.60;;;;;;5064415;28;20025;-48
2021/10/16 08:34:43;;;;;;;3.65;1.80;;;27.70;90.60;;;;;;5064836;28;20029;-48
2021/10/16 08:37:09;;;;;;;5.72;2.00;;;27.70;90.70;;;;;;5064006;28;20066;-50
2021/10/16 08:39:36;;;;;;;4.68;1.58;;;27.70;90.80;;;;;;5064227;28;20029;-57
2021/10/16 08:42:03;;;;;;;4.15;1.85;;;27.70;90.90;;;;;;5064793;28;20028;-49
2021/10/16 08:44:30;;;;;;;4.68;2.20;;;27.70;90.80;;;;;;5064527;28;20049;-59
2021/10/16 08:46:57;;;;;;;8.02;2.50;;;27.70;90.90;;;;;;5064084;28;20029;-52
2021/10/16 08:49:28;;;;;;;5.82;2.53;;;27.70;90.90;;;;;;5064668;28;20092;-49
2021/10/16 08:51:55;;;;;;;3.92;2.10;;;27.70;90.90;;;;;;5064318;28;20080;-50
2021/10/16 08:54:21;;;;;;;4.97;2.15;;;27.60;90.90;;;;;;5064408;28;20025;-52
2021/10/16 08:56:48;;;;;;;3.90;2.17;;;27.60;91.10;;;;;;5063943;28;20051;-50
2021/10/16 08:59:15;;;;;;;4.97;2.17;;;27.60;91.10;;;;;;5064348;28;20032;-57
2021/10/16 09:02:03;;;;;;;5.68;2.22;;;27.60;91.10;;;;;;5066081;28;20228;-55
2021/10/16 09:04:31;;;;;;;4.22;2.25;;;27.60;91.10;;;;;;5068140;28;20025;-51
2021/10/16 09:06:59;;;;;;;3.75;2.08;;;27.60;91.20;;;;;;5067999;28;20284;-52
2021/10/16 09:09:28;;;;;;;6.82;2.55;;;27.60;91.50;;;;;;5068523;28;20024;-45
2021/10/16 09:11:55;;;;;;;6.45;2.35;;;27.60;91.30;;;;;;5067650;28;20020;-46
2021/10/16 09:14:31;;;;;;;4.50;2.10;;;27.60;91.40;;;;;;5067754;28;20063;-52
2021/10/16 09:17:03;;;;;;;4.15;2.35;;;27.60;91.40;;;;;;5067447;28;20039;-48
2021/10/16 09:19:32;;;;;;;8.48;2.28;;;27.60;91.50;;;;;;5067826;28;20039;-47
2021/10/16 09:22:18;;;;;;;5.45;2.72;;;27.60;91.50;;;;;;5067890;28;20025;-51
2021/10/16 09:24:46;;;;;;;5.50;2.25;;;27.60;91.60;;;;;;5068217;28;20157;-52
2021/10/16 09:27:24;;;;;;;6.38;2.13;;;27.60;91.70;;;;;;5067390;28;20261;-48
2021/10/16 09:30:02;;;;;;;4.78;2.20;;;27.60;91.70;;;;;;5067372;28;20396;-52
2021/10/16 09:32:29;;;;;;;4.95;2.53;;;27.60;91.70;;;;;;5067193;28;20213;-56
2021/10/16 09:35:12;;;;;;;3.92;2.72;;;27.60;91.80;;;;;;5067367;28;20021;-54
2021/10/16 09:37:52;;;;;;;5.50;2.80;;;27.60;91.80;;;;;;5067129;28;20040;-55
2021/10/16 09:40:36;;;;;;;4.07;2.90;;;27.60;91.80;;;;;;5067466;28;20024;-55
2021/10/16 09:43:20;;;;;;;4.35;2.97;;;27.50;91.80;;;;;;5067357;28;20284;-53
2021/10/16 09:45:47;;;;;;;14.90;3.50;;;27.60;91.90;;;;;;5067410;28;20056;-50
2021/10/16 09:48:36;;;;;;;5.00;3.05;;;27.50;91.90;;;;;;5067418;28;20028;-51
2021/10/16 09:51:03;;;;;;;5.40;3.13;;;27.50;91.90;;;;;;5067140;28;20024;-51
2021/10/16 09:53:30;;;;;;;7.32;2.97;;;27.50;91.90;;;;;;5067367;28;20017;-53
2021/10/16 09:55:56;;;;;;;9.20;3.03;;;27.50;92.00;;;;;;5067146;28;20258;-52
2021/10/16 09:58:24;;;;;;;5.45;2.45;;;27.50;92.00;;;;;;5066909;28;20032;-52
2021/10/16 10:00:53;;;;;;;5.68;2.67;;;27.50;92.00;;;;;;5067007;28;20021;-51
2021/10/16 10:03:24;;;;;;;4.90;2.60;;;27.50;91.90;;;;;;5067127;28;20024;-54
2021/10/16 10:05:55;;;;;;;3.67;2.70;;;27.50;91.90;;;;;;5066947;28;20028;-52
2021/10/16 10:08:21;;;;;;;5.32;2.58;;;27.50;91.90;;;;;;5066956;28;20021;-53
2021/10/16 10:10:49;;;;;;;9.30;2.65;;;27.50;91.80;;;;;;5066891;28;20028;-45
2021/10/16 10:13:16;;;;;;;7.50;2.42;;;27.50;91.70;;;;;;5066348;28;20025;-49
2021/10/16 10:15:44;;;;;;;4.72;2.20;;;27.40;91.70;;;;;;5066787;28;20102;-52
2021/10/16 10:20:59;;;;;;;7.57;2.50;;;27.40;91.50;;;;;;5066822;28;20067;-49
2021/10/16 10:23:27;;;;;;;4.55;2.28;;;27.40;91.40;;;;;;5066518;28;20055;-49
2021/10/16 10:26:31;;;;;;;4.13;1.63;;;27.40;91.30;;;;;;5066491;28;20021;-47
2021/10/16 10:29:07;;;;;;;4.43;2.13;;;27.30;91.00;;;;;;5066145;28;20239;-49
2021/10/16 10:31:46;;;;;;;4.70;1.83;;;27.30;91.00;;;;;;5066125;28;20029;-46
2021/10/16 10:34:16;;;;;;;4.45;1.60;;;27.30;90.90;;;;;;5066680;28;20035;-48
2021/10/16 10:36:46;;;;;;;4.75;1.83;;;27.30;90.90;;;;;;5066124;28;20017;-53
2021/10/16 10:39:35;;;;;;;5.25;1.83;;;27.30;90.90;;;;;;5066626;28;20021;-51
2021/10/16 10:42:13;;;;;;;8.13;2.03;;;27.30;90.90;;;;;;5066262;28;20071;-49
2021/10/16 10:44:44;;;;;;;4.10;1.50;;;27.30;90.90;;;;;;5066233;28;20017;-48
2021/10/16 10:47:24;;;;;;;8.90;1.90;;;27.30;90.90;;;;;;5065313;28;20131;-51
2021/10/16 10:49:53;;;;;;;6.07;1.90;;;27.30;90.80;;;;;;5065257;28;20029;-46
2021/10/16 10:52:24;;;;;;;6.63;2.00;;;27.30;90.90;;;;;;5065083;28;20013;-50
2021/10/16 10:55:04;;;;;;;6.60;1.80;;;27.30;90.80;;;;;;5065567;28;20252;-47
2021/10/16 10:57:43;;;;;;;4.32;1.92;;;27.30;90.90;;;;;;5064853;28;20275;-50
2021/10/16 11:00:16;;;;;;;4.03;1.73;;;27.30;91.00;;;;;;5065232;28;20310;-46
2021/10/16 11:55:55;;;;;;;2.53;1.80;;;27.50;91.30;;;;;;5100679;28;20433;-48
2021/10/16 11:58:25;;;;;;;8.15;2.92;;;27.90;90.80;;;;;;5081079;28;20040;-52
2021/10/16 12:00:56;;;;;;;6.75;2.90;;;27.90;90.90;;;;;;5081188;28;20032;-51
2021/10/16 12:03:32;;;;;;;2.95;2.15;;;27.90;91.10;;;;;;5080903;28;20121;-53
2021/10/16 12:06:04;;;;;;;4.07;1.90;;;27.90;91.10;;;;;;5081219;28;20054;-54
2021/10/16 12:08:39;;;;;;;8.85;2.15;;;27.90;91.10;;;;;;5081209;28;20021;-53
2021/10/16 12:11:06;;;;;;;7.10;2.65;;;27.80;91.00;;;;;;5081240;28;20021;-53
2021/10/16 12:13:38;;;;;;;7.03;2.70;;;27.90;91.10;;;;;;5080997;28;20308;-51
2021/10/16 12:16:16;;;;;;;4.88;2.08;;;27.90;91.10;;;;;;5080786;28;20047;-52
2021/10/16 12:18:51;;;;;;;4.43;2.55;;;27.90;90.90;;;;;;5080743;28;20029;-53
2021/10/16 12:21:28;;;;;;;4.68;2.63;;;28.00;90.60;;;;;;5062650;28;20212;-52
2021/10/16 12:23:56;;;;;;;5.50;2.40;;;28.00;90.50;;;;;;5080542;28;20209;-53
2021/10/16 12:26:29;;;;;;;5.43;2.55;;;28.00;90.60;;;;;;5080873;28;20021;-53
2021/10/16 12:28:57;;;;;;;7.13;2.42;;;28.10;90.40;;;;;;5080833;28;20048;-55
2021/10/16 12:31:24;;;;;;;4.38;2.13;;;28.10;90.40;;;;;;5062544;28;20021;-46
2021/10/16 12:34:08;;;;;;;5.28;2.30;;;28.10;90.50;;;;;;5080631;28;20025;-46
2021/10/16 12:36:44;;;;;;;4.80;2.03;;;28.10;90.50;;;;;;5080216;28;20020;-46
2021/10/16 12:39:11;;;;;;;6.25;2.75;;;28.10;90.50;;;;;;5080412;28;20029;-45
2021/10/16 12:41:46;;;;;;;4.45;2.30;;;28.10;90.80;;;;;;5080242;28;20024;-51
2021/10/16 12:44:25;;;;;;;5.68;2.65;;;28.10;90.60;;;;;;5077163;28;20099;-50
2021/10/16 13:06:34;;;;;;;5.22;2.63;;;28.10;90.60;;;;;;5101173;28;20468;-50
2021/10/16 13:09:00;;;;;;;5.45;2.83;;;28.40;90.80;;;;;;5100200;28;20033;-50
2021/10/16 13:11:28;;;;;;;4.93;2.65;;;28.50;90.70;;;;;;5101339;28;20045;-52
2021/10/16 13:13:54;;;;;;;5.95;2.60;;;28.50;90.70;;;;;;5101036;28;20023;-53
2021/10/16 13:16:21;;;;;;;4.47;2.30;;;28.50;90.70;;;;;;5101148;28;20036;-52
2021/10/16 13:18:48;;;;;;;6.90;2.67;;;28.50;90.70;;;;;;5100987;28;20040;-50
2021/10/16 13:21:14;;;;;;;6.43;2.50;;;28.50;90.70;;;;;;5099784;28;20048;-53
2021/10/16 13:23:41;;;;;;;6.45;2.53;;;28.50;90.80;;;;;;5101096;28;20028;-50
2021/10/16 13:26:07;;;;;;;8.57;2.60;;;28.60;90.70;;;;;;5100999;28;20020;-50
2021/10/16 13:28:34;;;;;;;5.65;2.40;;;28.60;90.60;;;;;;5100892;28;20013;-51
2021/10/16 13:31:02;;;;;;;7.05;2.83;;;28.60;90.60;;;;;;5100881;28;20028;-50
2021/10/16 13:33:29;;;;;;;5.20;2.60;;;28.60;90.70;;;;;;5100743;28;20016;-48
2021/10/16 13:35:56;;;;;;;4.28;2.47;;;28.60;90.70;;;;;;5100986;28;20048;-50
2021/10/16 13:38:24;;;;;;;7.13;2.50;;;28.60;90.60;;;;;;5100667;28;20020;-50
2021/10/16 13:40:52;;;;;;;3.47;2.20;;;28.70;90.70;;;;;;5101070;28;20024;-49
2021/10/16 13:43:18;;;;;;;4.70;2.22;;;28.70;90.70;;;;;;5100527;28;20024;-49
2021/10/16 13:45:45;;;;;;;3.65;2.42;;;28.70;90.70;;;;;;5101008;28;20028;-47
2021/10/16 13:48:13;;;;;;;3.72;2.05;;;28.70;90.70;;;;;;5100559;28;20020;-48
2021/10/16 13:50:40;;;;;;;7.00;2.38;;;28.70;90.80;;;;;;5100744;28;20079;-51
2021/10/16 13:53:06;;;;;;;5.45;2.33;;;28.80;90.80;;;;;;5100377;28;20027;-44
2021/10/16 13:55:34;;;;;;;3.25;2.30;;;28.80;90.60;;;;;;5100622;28;20020;-47
2021/10/16 13:58:00;;;;;;;3.33;2.25;;;28.80;90.50;;;;;;5100148;28;20326;-51
2021/10/16 14:00:27;;;;;;;6.60;2.40;;;28.90;90.60;;;;;;5100652;28;20032;-45
2021/10/16 14:02:53;;;;;;;4.68;2.40;;;28.90;90.60;;;;;;5100224;28;20032;-51
2021/10/16 14:05:20;;;;;;;4.70;2.10;;;28.90;90.50;;;;;;5098848;28;20324;-44